METAR 2014/11/23 :

EPMO 5:00: METAR EPMO 230500Z 14004KT 2000 BR OVC017 02/02 Q1030=

TAF 2014/11/23 :

EPMO 3:13: TAF AMD EPMO 230313Z 2303/2312 09005KT 1000 BR OVC020 TEMPO 2303/2307 0500 FG OVC005 BECMG 2307/2310 5000 BR BKN015= EPMO 2:00: TAF EPMO 230200Z NIL=

Pogoda ogólna dla Polski